Time;durP1;ratioP1;P1;durP2;ratioP2;P2;SDS_P1;SDS_P2;PMS_P1;PMS_P2;Temp;Humidity;BMP_temperature;BMP_pressure;BME280_temperature;BME280_humidity;BME280_pressure;Samples;Min_cycle;Max_cycle;Signal;HPM_P1;HPM_P2
2022/11/24 00:01:59;;;;;;;;;;;21.70;40.90;;;;;;484168;246;1314;-44
2022/11/24 00:04:00;;;;;;;;;;;21.70;40.90;;;;;;484026;246;1382;-45
2022/11/24 00:06:02;;;;;;;;;;;21.70;40.90;;;;;;484086;246;1531;-44
2022/11/24 00:08:03;;;;;;;;;;;21.60;40.90;;;;;;484125;246;2145;-44
2022/11/24 00:10:04;;;;;;;;;;;21.70;41.00;;;;;;484324;246;1382;-44
2022/11/24 00:12:06;;;;;;;;;;;21.60;41.00;;;;;;484199;246;1277;-45
2022/11/24 00:14:08;;;;;;;;;;;21.60;41.00;;;;;;484092;246;1307;-44
2022/11/24 00:16:08;;;;;;;;;;;21.60;41.00;;;;;;484247;246;1337;-44
2022/11/24 00:18:10;;;;;;;;;;;21.60;41.00;;;;;;484122;243;1268;-44
2022/11/24 00:20:11;;;;;;;;;;;21.60;41.00;;;;;;484594;246;1235;-44
2022/11/24 00:22:12;;;;;;;;;;;21.60;41.00;;;;;;484163;246;1392;-45
2022/11/24 00:24:14;;;;;;;;;;;21.60;41.00;;;;;;484363;246;1268;-44
2022/11/24 00:26:15;;;;;;;;;;;21.60;41.10;;;;;;484401;246;1332;-44
2022/11/24 00:28:16;;;;;;;;;;;21.60;41.10;;;;;;484076;246;2155;-45
2022/11/24 00:30:18;;;;;;;;;;;21.60;41.10;;;;;;484139;246;1325;-45
2022/11/24 00:32:19;;;;;;;;;;;21.70;40.90;;;;;;484172;246;1356;-44
2022/11/24 00:34:20;;;;;;;;;;;21.90;40.60;;;;;;484144;246;1776;-45
2022/11/24 00:36:22;;;;;;;;;;;22.00;40.30;;;;;;484281;246;1268;-45
2022/11/24 00:38:23;;;;;;;;;;;22.20;40.00;;;;;;484558;246;1539;-45
2022/11/24 00:40:24;;;;;;;;;;;22.20;39.90;;;;;;484377;246;1227;-44
2022/11/24 00:42:26;;;;;;;;;;;22.20;39.90;;;;;;484374;246;1314;-45
2022/11/24 00:44:27;;;;;;;;;;;22.10;40.00;;;;;;484527;246;1331;-44
2022/11/24 00:46:28;;;;;;;;;;;22.00;40.20;;;;;;484281;246;1269;-45
2022/11/24 00:48:30;;;;;;;;;;;21.90;40.40;;;;;;484177;246;2173;-44
2022/11/24 00:50:31;;;;;;;;;;;21.90;40.50;;;;;;484565;246;1204;-44
2022/11/24 00:52:32;;;;;;;;;;;21.80;40.60;;;;;;484615;246;1219;-44
2022/11/24 00:54:34;;;;;;;;;;;21.80;40.70;;;;;;484198;246;1203;-45
2022/11/24 00:56:35;;;;;;;;;;;21.90;40.70;;;;;;484452;246;1286;-44
2022/11/24 00:58:36;;;;;;;;;;;22.00;40.50;;;;;;484183;246;1247;-45
2022/11/24 01:00:38;;;;;;;;;;;22.00;40.20;;;;;;484273;246;1292;-45
2022/11/24 01:02:39;;;;;;;;;;;22.20;40.00;;;;;;484178;246;1342;-45
2022/11/24 01:04:40;;;;;;;;;;;22.30;39.80;;;;;;484297;246;1269;-44
2022/11/24 01:06:42;;;;;;;;;;;22.20;39.90;;;;;;484100;246;1293;-44
2022/11/24 01:08:43;;;;;;;;;;;22.10;40.10;;;;;;484092;246;2164;-44
2022/11/24 01:10:44;;;;;;;;;;;22.00;40.20;;;;;;484138;246;1302;-45
2022/11/24 01:12:46;;;;;;;;;;;21.90;40.20;;;;;;484077;246;1668;-44
2022/11/24 01:14:47;;;;;;;;;;;21.90;40.40;;;;;;484068;246;1452;-45
2022/11/24 01:16:48;;;;;;;;;;;21.90;40.50;;;;;;484210;246;1283;-45
2022/11/24 01:18:50;;;;;;;;;;;21.80;40.70;;;;;;484212;246;1690;-44
2022/11/24 01:20:51;;;;;;;;;;;21.80;40.80;;;;;;484122;242;1298;-45
2022/11/24 01:22:52;;;;;;;;;;;21.80;40.80;;;;;;484383;246;1328;-44
2022/11/24 01:24:54;;;;;;;;;;;21.80;40.80;;;;;;484376;246;1369;-44
2022/11/24 01:26:55;;;;;;;;;;;21.70;40.80;;;;;;484049;246;1924;-44
2022/11/24 01:28:56;;;;;;;;;;;21.70;40.80;;;;;;484109;246;2156;-44
2022/11/24 01:30:58;;;;;;;;;;;21.70;40.80;;;;;;484264;246;1487;-44
2022/11/24 01:32:59;;;;;;;;;;;21.70;40.90;;;;;;484400;246;1429;-45
2022/11/24 01:35:00;;;;;;;;;;;21.70;40.90;;;;;;484093;246;1328;-44
2022/11/24 01:37:02;;;;;;;;;;;21.70;41.00;;;;;;484306;246;1248;-45
2022/11/24 01:39:03;;;;;;;;;;;21.60;41.00;;;;;;484210;246;1667;-44
2022/11/24 01:41:04;;;;;;;;;;;21.70;41.00;;;;;;484139;246;1227;-44
2022/11/24 01:43:06;;;;;;;;;;;21.60;40.90;;;;;;484166;246;1273;-44
2022/11/24 01:45:07;;;;;;;;;;;21.60;41.00;;;;;;484123;246;1464;-44
2022/11/24 01:47:08;;;;;;;;;;;21.60;41.00;;;;;;484463;246;1225;-44
2022/11/24 01:49:09;;;;;;;;;;;21.60;41.10;;;;;;484399;246;2156;-44
2022/11/24 01:51:11;;;;;;;;;;;21.60;41.00;;;;;;484640;246;1227;-44
2022/11/24 01:53:12;;;;;;;;;;;21.60;41.10;;;;;;484605;246;1243;-44
2022/11/24 01:55:14;;;;;;;;;;;21.60;41.10;;;;;;484643;246;1178;-45
2022/11/24 01:57:15;;;;;;;;;;;21.60;41.10;;;;;;484417;246;1245;-44
2022/11/24 01:59:16;;;;;;;;;;;21.60;41.10;;;;;;484180;246;1240;-45
2022/11/24 02:01:17;;;;;;;;;;;21.60;41.10;;;;;;484323;246;1269;-44
2022/11/24 02:03:19;;;;;;;;;;;21.50;41.20;;;;;;484604;246;1160;-44
2022/11/24 02:05:20;;;;;;;;;;;21.50;41.20;;;;;;484210;246;1238;-44
2022/11/24 02:07:21;;;;;;;;;;;21.50;41.20;;;;;;484193;246;1270;-44
2022/11/24 02:09:23;;;;;;;;;;;21.60;41.20;;;;;;484428;246;2200;-44
2022/11/24 02:11:24;;;;;;;;;;;21.50;41.20;;;;;;484357;246;1233;-44
2022/11/24 02:13:25;;;;;;;;;;;21.50;41.20;;;;;;484369;246;1260;-44
2022/11/24 02:15:27;;;;;;;;;;;21.50;41.20;;;;;;484374;246;1243;-44
2022/11/24 02:17:28;;;;;;;;;;;21.50;41.20;;;;;;484238;246;1253;-44
2022/11/24 02:19:29;;;;;;;;;;;21.60;41.10;;;;;;484364;246;1608;-45
2022/11/24 02:21:31;;;;;;;;;;;21.80;40.70;;;;;;484321;246;1273;-45
2022/11/24 02:23:32;;;;;;;;;;;22.00;40.50;;;;;;484593;246;1228;-45
2022/11/24 02:25:33;;;;;;;;;;;22.10;40.20;;;;;;484115;246;1374;-45
2022/11/24 02:27:35;;;;;;;;;;;22.20;40.00;;;;;;484168;246;1245;-44
2022/11/24 02:29:36;;;;;;;;;;;22.30;40.00;;;;;;484525;246;2203;-44
2022/11/24 02:31:37;;;;;;;;;;;22.20;40.00;;;;;;484637;246;1263;-45
2022/11/24 02:33:39;;;;;;;;;;;22.00;40.20;;;;;;484424;246;1427;-44
2022/11/24 02:35:40;;;;;;;;;;;22.00;40.40;;;;;;484197;246;1664;-44
2022/11/24 02:37:41;;;;;;;;;;;21.90;40.60;;;;;;484195;246;1375;-44
2022/11/24 02:39:43;;;;;;;;;;;21.80;40.70;;;;;;484181;246;1267;-44
2022/11/24 02:41:44;;;;;;;;;;;21.80;40.70;;;;;;484342;246;1467;-44
2022/11/24 02:43:45;;;;;;;;;;;21.80;40.80;;;;;;484447;246;1534;-45
2022/11/24 02:45:47;;;;;;;;;;;21.70;40.80;;;;;;484610;246;1690;-45
2022/11/24 02:47:48;;;;;;;;;;;21.70;40.80;;;;;;484169;246;1243;-44
2022/11/24 02:49:49;;;;;;;;;;;21.70;40.90;;;;;;484362;246;2111;-45
2022/11/24 02:51:51;;;;;;;;;;;21.70;41.00;;;;;;484142;246;2149;-44
2022/11/24 02:53:52;;;;;;;;;;;21.70;40.90;;;;;;484546;246;1530;-44
2022/11/24 02:55:53;;;;;;;;;;;21.70;41.00;;;;;;484372;246;1279;-44
2022/11/24 02:57:54;;;;;;;;;;;21.60;41.00;;;;;;484586;246;1325;-44
2022/11/24 02:59:56;;;;;;;;;;;21.70;41.00;;;;;;484253;246;1471;-44
2022/11/24 03:01:57;;;;;;;;;;;21.60;41.10;;;;;;484542;246;1213;-44
2022/11/24 03:03:58;;;;;;;;;;;21.60;41.10;;;;;;484499;246;1315;-45
2022/11/24 03:06:00;;;;;;;;;;;21.60;41.10;;;;;;484158;246;1246;-45
2022/11/24 03:08:01;;;;;;;;;;;21.50;41.10;;;;;;484336;246;1292;-44
2022/11/24 03:10:02;;;;;;;;;;;21.60;41.10;;;;;;484400;246;2191;-45
2022/11/24 03:12:04;;;;;;;;;;;21.60;41.10;;;;;;484118;246;1710;-45
2022/11/24 03:14:05;;;;;;;;;;;21.60;41.10;;;;;;484352;246;1259;-44
2022/11/24 03:16:07;;;;;;;;;;;21.60;41.10;;;;;;484510;246;1242;-44
2022/11/24 03:18:08;;;;;;;;;;;21.60;41.10;;;;;;484291;246;1401;-45
2022/11/24 03:20:09;;;;;;;;;;;21.60;41.10;;;;;;484220;246;1237;-44
2022/11/24 03:22:10;;;;;;;;;;;21.50;41.10;;;;;;484600;246;1326;-44
2022/11/24 03:24:12;;;;;;;;;;;21.50;41.20;;;;;;484421;246;1229;-44
2022/11/24 03:26:13;;;;;;;;;;;21.50;41.20;;;;;;484169;246;1251;-44
2022/11/24 03:28:14;;;;;;;;;;;21.50;41.20;;;;;;484141;246;2192;-45
2022/11/24 03:30:16;;;;;;;;;;;21.50;41.20;;;;;;484562;246;1266;-44
2022/11/24 03:32:17;;;;;;;;;;;21.50;41.20;;;;;;484435;246;1238;-44
2022/11/24 03:34:18;;;;;;;;;;;21.50;41.20;;;;;;484613;246;1259;-44
2022/11/24 03:36:20;;;;;;;;;;;21.50;41.20;;;;;;484180;246;1368;-44
2022/11/24 03:38:21;;;;;;;;;;;21.50;41.20;;;;;;484372;246;1428;-44
2022/11/24 03:40:22;;;;;;;;;;;21.50;41.20;;;;;;484443;246;1334;-45
2022/11/24 03:42:24;;;;;;;;;;;21.50;41.20;;;;;;484166;246;1245;-44
2022/11/24 03:44:25;;;;;;;;;;;21.50;41.20;;;;;;484588;246;1200;-44
2022/11/24 03:46:26;;;;;;;;;;;21.50;41.20;;;;;;484179;246;1245;-44
2022/11/24 03:48:28;;;;;;;;;;;21.50;41.20;;;;;;484605;246;2168;-44
2022/11/24 03:50:29;;;;;;;;;;;21.50;41.30;;;;;;484376;246;1328;-44
2022/11/24 03:52:30;;;;;;;;;;;21.50;41.20;;;;;;484458;246;1250;-44
2022/11/24 03:54:32;;;;;;;;;;;21.50;41.20;;;;;;484599;246;1308;-44
2022/11/24 03:56:33;;;;;;;;;;;21.40;41.20;;;;;;484486;246;1339;-45
2022/11/24 03:58:34;;;;;;;;;;;21.50;41.30;;;;;;484595;246;1227;-45
2022/11/24 04:00:35;;;;;;;;;;;21.50;41.20;;;;;;484468;246;1278;-44
2022/11/24 04:02:37;;;;;;;;;;;21.50;41.20;;;;;;484589;246;1349;-44
2022/11/24 04:04:38;;;;;;;;;;;21.50;41.30;;;;;;484552;246;1301;-44
2022/11/24 04:06:40;;;;;;;;;;;21.50;41.30;;;;;;484123;246;1413;-44
2022/11/24 04:08:41;;;;;;;;;;;21.50;41.30;;;;;;484095;246;2176;-44
2022/11/24 04:10:42;;;;;;;;;;;21.50;41.30;;;;;;484290;246;1239;-44
2022/11/24 04:12:43;;;;;;;;;;;21.40;41.20;;;;;;484360;246;1284;-44
2022/11/24 04:14:45;;;;;;;;;;;21.50;41.30;;;;;;484153;246;1264;-44
2022/11/24 04:16:46;;;;;;;;;;;21.40;41.20;;;;;;484288;246;1373;-44
2022/11/24 04:18:47;;;;;;;;;;;21.50;41.30;;;;;;484152;246;1250;-44
2022/11/24 04:20:49;;;;;;;;;;;21.50;41.30;;;;;;484237;246;1280;-44
2022/11/24 04:22:50;;;;;;;;;;;21.40;41.30;;;;;;484197;246;1237;-44
2022/11/24 04:24:52;;;;;;;;;;;21.40;41.30;;;;;;484532;246;1342;-44
2022/11/24 04:26:53;;;;;;;;;;;21.40;41.30;;;;;;484278;246;1679;-44
2022/11/24 04:28:54;;;;;;;;;;;21.40;41.30;;;;;;484328;246;2156;-44
2022/11/24 04:30:56;;;;;;;;;;;21.40;41.30;;;;;;484174;246;1249;-44
2022/11/24 04:32:57;;;;;;;;;;;21.40;41.30;;;;;;484622;246;1200;-44
2022/11/24 04:34:58;;;;;;;;;;;21.40;41.20;;;;;;484160;246;1258;-45
2022/11/24 04:36:59;;;;;;;;;;;21.40;41.30;;;;;;484166;246;1375;-44
2022/11/24 04:39:01;;;;;;;;;;;21.40;41.30;;;;;;484636;246;1412;-44
2022/11/24 04:41:02;;;;;;;;;;;21.40;41.30;;;;;;484530;246;1271;-45
2022/11/24 04:43:04;;;;;;;;;;;21.40;41.30;;;;;;484597;246;1239;-44
2022/11/24 04:45:05;;;;;;;;;;;21.40;41.30;;;;;;484100;246;1419;-44
2022/11/24 04:47:06;;;;;;;;;;;21.40;41.30;;;;;;484167;246;1232;-44
2022/11/24 04:49:10;;;;;;;;;;;21.40;41.30;;;;;;484238;246;2140;-45
2022/11/24 04:51:09;;;;;;;;;;;21.40;41.40;;;;;;484078;246;1730;-44
2022/11/24 04:53:12;;;;;;;;;;;21.40;41.30;;;;;;484566;246;1173;-44
2022/11/24 04:55:12;;;;;;;;;;;21.40;41.40;;;;;;484555;246;1434;-44
2022/11/24 04:57:13;;;;;;;;;;;21.40;41.30;;;;;;484557;246;1360;-44
2022/11/24 04:59:15;;;;;;;;;;;21.40;41.40;;;;;;484342;246;1182;-44
2022/11/24 05:01:16;;;;;;;;;;;21.40;41.30;;;;;;484355;246;1290;-44
2022/11/24 05:03:17;;;;;;;;;;;21.40;41.30;;;;;;484352;246;1393;-44
2022/11/24 05:05:19;;;;;;;;;;;21.40;41.30;;;;;;484328;246;1368;-44
2022/11/24 05:07:20;;;;;;;;;;;21.40;41.30;;;;;;484144;246;1334;-45
2022/11/24 05:09:21;;;;;;;;;;;21.40;41.30;;;;;;484566;246;2164;-44
2022/11/24 05:11:23;;;;;;;;;;;21.40;41.30;;;;;;484606;246;1283;-44
2022/11/24 05:13:24;;;;;;;;;;;21.40;41.30;;;;;;484290;246;1263;-44
2022/11/24 05:15:25;;;;;;;;;;;21.40;41.30;;;;;;484150;246;1206;-44
2022/11/24 05:17:27;;;;;;;;;;;21.40;41.30;;;;;;484095;246;1285;-44
2022/11/24 05:19:28;;;;;;;;;;;21.40;41.30;;;;;;484393;246;1216;-44
2022/11/24 05:21:29;;;;;;;;;;;21.40;41.30;;;;;;484218;246;1243;-44
2022/11/24 05:23:31;;;;;;;;;;;21.40;41.30;;;;;;484453;246;1283;-44
2022/11/24 05:25:32;;;;;;;;;;;21.40;41.30;;;;;;484238;246;1251;-45
2022/11/24 05:27:33;;;;;;;;;;;21.40;41.30;;;;;;484116;246;1456;-44
2022/11/24 05:29:35;;;;;;;;;;;21.40;41.30;;;;;;484508;246;2152;-44
2022/11/24 05:31:36;;;;;;;;;;;21.40;41.30;;;;;;484047;246;1690;-44
2022/11/24 05:33:37;;;;;;;;;;;21.40;41.20;;;;;;484302;246;1287;-44
2022/11/24 05:35:39;;;;;;;;;;;21.40;41.30;;;;;;484247;246;1830;-44
2022/11/24 05:37:40;;;;;;;;;;;21.40;41.30;;;;;;484139;246;1278;-44
2022/11/24 05:39:41;;;;;;;;;;;21.40;41.20;;;;;;484171;246;1256;-44
2022/11/24 05:41:42;;;;;;;;;;;21.40;41.20;;;;;;484194;246;1350;-44
2022/11/24 05:43:44;;;;;;;;;;;21.40;41.20;;;;;;484082;246;1234;-44
2022/11/24 05:45:45;;;;;;;;;;;21.40;41.20;;;;;;484519;246;1213;-45
2022/11/24 05:47:46;;;;;;;;;;;21.40;41.30;;;;;;484552;246;1302;-44
2022/11/24 05:49:48;;;;;;;;;;;21.40;41.30;;;;;;484590;246;2216;-45
2022/11/24 05:51:49;;;;;;;;;;;21.60;41.10;;;;;;484333;246;1656;-45
2022/11/24 05:53:50;;;;;;;;;;;21.70;40.80;;;;;;484408;246;1231;-45
2022/11/24 05:55:52;;;;;;;;;;;21.90;40.50;;;;;;484617;246;1295;-45
2022/11/24 05:57:53;;;;;;;;;;;22.00;40.20;;;;;;484314;246;1210;-45
2022/11/24 05:59:54;;;;;;;;;;;22.10;40.00;;;;;;484564;246;1283;-44
2022/11/24 06:01:56;;;;;;;;;;;22.20;39.90;;;;;;484299;246;1267;-44
2022/11/24 06:03:57;;;;;;;;;;;22.20;39.80;;;;;;484114;246;1212;-44
2022/11/24 06:05:58;;;;;;;;;;;22.10;40.00;;;;;;484181;246;1331;-44
2022/11/24 06:08:00;;;;;;;;;;;22.00;40.20;;;;;;484047;246;1257;-45
2022/11/24 06:10:01;;;;;;;;;;;21.90;40.40;;;;;;484034;246;2197;-45
2022/11/24 06:12:03;;;;;;;;;;;21.80;40.50;;;;;;484226;246;1347;-44
2022/11/24 06:14:04;;;;;;;;;;;21.80;40.70;;;;;;484015;246;1246;-44
2022/11/24 06:16:05;;;;;;;;;;;21.70;40.70;;;;;;484071;246;1735;-44
2022/11/24 06:18:07;;;;;;;;;;;21.70;40.80;;;;;;484111;246;1241;-45
2022/11/24 06:20:08;;;;;;;;;;;21.70;40.90;;;;;;484091;246;1240;-45
2022/11/24 06:22:10;;;;;;;;;;;21.60;40.90;;;;;;484188;246;1302;-44
2022/11/24 06:24:11;;;;;;;;;;;21.60;40.90;;;;;;484248;242;1707;-44
2022/11/24 06:26:12;;;;;;;;;;;21.60;41.00;;;;;;484167;246;1262;-44
2022/11/24 06:28:14;;;;;;;;;;;21.60;41.00;;;;;;484557;246;1184;-44
2022/11/24 06:30:15;;;;;;;;;;;21.60;41.00;;;;;;484373;246;2191;-44
2022/11/24 06:32:16;;;;;;;;;;;21.60;41.00;;;;;;484356;246;1241;-44
2022/11/24 06:34:18;;;;;;;;;;;21.60;41.00;;;;;;484122;246;1210;-44
2022/11/24 06:36:19;;;;;;;;;;;21.60;41.00;;;;;;484137;246;1230;-44
2022/11/24 06:38:21;;;;;;;;;;;21.50;41.00;;;;;;484032;246;1273;-44
2022/11/24 06:40:22;;;;;;;;;;;21.50;41.10;;;;;;484307;246;1174;-44
2022/11/24 06:42:23;;;;;;;;;;;21.50;41.20;;;;;;484062;246;1207;-44
2022/11/24 06:44:24;;;;;;;;;;;21.50;41.20;;;;;;483984;246;1175;-44
2022/11/24 06:46:26;;;;;;;;;;;21.40;41.30;;;;;;484016;246;1219;-44
2022/11/24 06:48:27;;;;;;;;;;;21.40;41.30;;;;;;484104;246;1218;-44
2022/11/24 06:50:28;;;;;;;;;;;21.40;41.30;;;;;;483942;246;2192;-44
2022/11/24 06:52:30;;;;;;;;;;;21.40;41.40;;;;;;484009;246;1253;-45
2022/11/24 06:54:31;;;;;;;;;;;21.40;41.40;;;;;;484012;246;1237;-44
2022/11/24 06:56:32;;;;;;;;;;;21.40;41.40;;;;;;483898;246;1236;-45
2022/11/24 06:58:34;;;;;;;;;;;21.40;41.40;;;;;;483933;246;1682;-44
2022/11/24 07:00:35;;;;;;;;;;;21.40;41.40;;;;;;484284;246;1229;-44
2022/11/24 07:02:36;;;;;;;;;;;21.40;41.40;;;;;;483909;246;1229;-44
2022/11/24 07:04:38;;;;;;;;;;;21.40;41.50;;;;;;484319;246;1148;-44
2022/11/24 07:06:40;;;;;;;;;;;21.40;41.40;;;;;;484088;246;1352;-44
2022/11/24 07:08:40;;;;;;;;;;;21.40;41.40;;;;;;483933;246;1760;-44
2022/11/24 07:10:42;;;;;;;;;;;21.40;41.40;;;;;;484039;246;2145;-44
2022/11/24 07:12:43;;;;;;;;;;;21.40;41.40;;;;;;484066;246;1243;-44
2022/11/24 07:14:44;;;;;;;;;;;21.40;41.40;;;;;;483932;246;1448;-44
2022/11/24 07:16:46;;;;;;;;;;;21.40;41.40;;;;;;484063;246;1332;-44
2022/11/24 07:18:47;;;;;;;;;;;21.40;41.40;;;;;;483973;246;1286;-44
2022/11/24 07:20:48;;;;;;;;;;;21.30;41.30;;;;;;484085;246;1201;-44
2022/11/24 07:22:50;;;;;;;;;;;21.40;41.30;;;;;;483986;246;1272;-44
2022/11/24 07:24:51;;;;;;;;;;;21.40;41.30;;;;;;483899;246;1230;-44
2022/11/24 07:26:52;;;;;;;;;;;21.30;41.30;;;;;;483952;246;1314;-44
2022/11/24 07:28:54;;;;;;;;;;;21.40;41.40;;;;;;484054;246;1363;-44
2022/11/24 07:30:55;;;;;;;;;;;21.40;41.30;;;;;;484001;246;2192;-44
2022/11/24 07:32:56;;;;;;;;;;;21.30;41.30;;;;;;483966;246;1235;-44
2022/11/24 07:34:58;;;;;;;;;;;21.30;41.30;;;;;;484063;246;1292;-45
2022/11/24 07:36:59;;;;;;;;;;;21.30;41.30;;;;;;483568;246;1238;-44
2022/11/24 07:39:00;;;;;;;;;;;21.40;41.30;;;;;;483804;246;1536;-44
2022/11/24 07:41:02;;;;;;;;;;;21.40;41.20;;;;;;484026;246;1256;-44
2022/11/24 07:43:03;;;;;;;;;;;21.40;41.30;;;;;;483897;246;1509;-44
2022/11/24 07:45:04;;;;;;;;;;;21.30;41.20;;;;;;483753;246;1288;-44
2022/11/24 07:47:06;;;;;;;;;;;21.40;41.30;;;;;;483946;246;1366;-44
2022/11/24 07:49:07;;;;;;;;;;;21.40;41.30;;;;;;483860;246;1223;-44
2022/11/24 07:51:08;;;;;;;;;;;21.40;41.20;;;;;;484110;246;2152;-44
2022/11/24 07:53:10;;;;;;;;;;;21.40;41.20;;;;;;483946;246;1288;-45
2022/11/24 07:55:11;;;;;;;;;;;21.40;41.20;;;;;;483966;246;1769;-44
2022/11/24 07:57:12;;;;;;;;;;;21.40;41.20;;;;;;483822;246;1271;-44
2022/11/24 07:59:13;;;;;;;;;;;21.40;41.20;;;;;;483773;246;1273;-44
2022/11/24 08:01:15;;;;;;;;;;;21.40;41.20;;;;;;483905;246;1206;-44
2022/11/24 08:03:16;;;;;;;;;;;21.40;41.20;;;;;;483699;246;1318;-44
2022/11/24 08:05:17;;;;;;;;;;;21.40;41.20;;;;;;483849;242;1729;-44
2022/11/24 08:07:19;;;;;;;;;;;21.40;41.20;;;;;;484017;246;1313;-44
2022/11/24 08:09:20;;;;;;;;;;;21.40;41.20;;;;;;483778;246;1691;-44
2022/11/24 08:11:21;;;;;;;;;;;21.40;41.20;;;;;;483833;246;2204;-45
2022/11/24 08:13:23;;;;;;;;;;;21.40;41.20;;;;;;483867;246;1863;-44
2022/11/24 08:15:24;;;;;;;;;;;21.40;41.20;;;;;;483754;246;1555;-44
2022/11/24 08:17:25;;;;;;;;;;;21.40;41.20;;;;;;484030;246;1372;-44
2022/11/24 08:19:27;;;;;;;;;;;21.40;41.20;;;;;;483900;246;1670;-45
2022/11/24 08:21:28;;;;;;;;;;;21.40;41.20;;;;;;483743;246;1459;-44
2022/11/24 08:23:29;;;;;;;;;;;21.40;41.20;;;;;;483621;246;1213;-44
2022/11/24 08:25:31;;;;;;;;;;;21.40;41.10;;;;;;483519;246;1293;-44
2022/11/24 08:27:32;;;;;;;;;;;21.40;41.10;;;;;;483620;246;1914;-44
2022/11/24 08:29:33;;;;;;;;;;;21.40;41.10;;;;;;483474;246;1239;-44
2022/11/24 08:31:35;;;;;;;;;;;21.40;41.10;;;;;;483714;246;2196;-45
2022/11/24 08:33:36;;;;;;;;;;;21.40;41.10;;;;;;483754;246;1204;-44
2022/11/24 08:35:37;;;;;;;;;;;21.40;41.10;;;;;;483683;246;1623;-44
2022/11/24 08:37:39;;;;;;;;;;;21.40;41.10;;;;;;483647;246;1514;-45
2022/11/24 08:39:40;;;;;;;;;;;21.40;41.10;;;;;;483611;246;1280;-44
2022/11/24 08:41:41;;;;;;;;;;;21.40;41.10;;;;;;483677;246;1276;-44
2022/11/24 08:43:43;;;;;;;;;;;21.40;41.10;;;;;;483985;246;1225;-44
2022/11/24 08:45:44;;;;;;;;;;;21.40;41.10;;;;;;483799;246;1222;-44
2022/11/24 08:47:45;;;;;;;;;;;21.40;41.10;;;;;;483798;246;1267;-44
2022/11/24 08:49:47;;;;;;;;;;;21.40;41.10;;;;;;483989;246;1233;-44
2022/11/24 08:51:50;;;;;;;;;;;21.40;41.10;;;;;;483941;246;2199;-44
2022/11/24 08:53:49;;;;;;;;;;;21.40;41.10;;;;;;483731;246;2115;-44
2022/11/24 08:55:51;;;;;;;;;;;21.40;41.10;;;;;;483725;246;1313;-44
2022/11/24 08:57:52;;;;;;;;;;;21.40;41.10;;;;;;483821;246;1200;-44
2022/11/24 08:59:53;;;;;;;;;;;21.40;41.10;;;;;;483719;246;1195;-44
2022/11/24 09:01:55;;;;;;;;;;;21.40;41.10;;;;;;483856;246;1664;-45
2022/11/24 09:03:56;;;;;;;;;;;21.40;41.10;;;;;;483840;246;1541;-45
2022/11/24 09:05:57;;;;;;;;;;;21.40;41.10;;;;;;483749;246;1228;-44
2022/11/24 09:07:59;;;;;;;;;;;21.40;41.10;;;;;;483694;246;1640;-44
2022/11/24 09:10:00;;;;;;;;;;;21.40;41.00;;;;;;483760;246;1288;-44
2022/11/24 09:12:02;;;;;;;;;;;21.40;41.00;;;;;;483714;246;2117;-44
2022/11/24 09:14:03;;;;;;;;;;;21.40;41.10;;;;;;483687;246;1702;-44
2022/11/24 09:16:04;;;;;;;;;;;21.40;41.10;;;;;;483740;246;1559;-44
2022/11/24 09:18:05;;;;;;;;;;;21.40;41.00;;;;;;483933;246;1371;-44
2022/11/24 09:20:07;;;;;;;;;;;21.40;41.10;;;;;;483769;246;1305;-44
2022/11/24 09:22:08;;;;;;;;;;;21.40;41.00;;;;;;483928;246;1576;-44
2022/11/24 09:24:09;;;;;;;;;;;21.40;41.00;;;;;;483631;246;1382;-44
2022/11/24 09:26:11;;;;;;;;;;;21.40;41.00;;;;;;483873;246;1666;-44
2022/11/24 09:28:12;;;;;;;;;;;21.40;41.00;;;;;;483649;246;1587;-44
2022/11/24 09:30:13;;;;;;;;;;;21.40;41.00;;;;;;483740;246;1271;-44
2022/11/24 09:32:15;;;;;;;;;;;21.40;41.00;;;;;;483981;246;2188;-44
2022/11/24 09:34:16;;;;;;;;;;;21.40;41.10;;;;;;483529;246;1447;-44
2022/11/24 09:36:17;;;;;;;;;;;21.40;41.00;;;;;;484071;246;1227;-44
2022/11/24 09:38:19;;;;;;;;;;;21.40;41.00;;;;;;483720;246;1317;-44
2022/11/24 09:40:21;;;;;;;;;;;21.40;41.00;;;;;;483730;246;1274;-45
2022/11/24 09:42:22;;;;;;;;;;;21.40;41.00;;;;;;483827;246;1703;-45
2022/11/24 09:44:24;;;;;;;;;;;21.40;41.00;;;;;;483976;246;1405;-44
2022/11/24 09:46:25;;;;;;;;;;;21.40;41.00;;;;;;483952;246;1284;-44
2022/11/24 09:48:26;;;;;;;;;;;21.40;41.00;;;;;;483768;246;1230;-44
2022/11/24 09:50:28;;;;;;;;;;;21.40;40.90;;;;;;483754;246;2141;-45
2022/11/24 09:52:29;;;;;;;;;;;21.40;41.00;;;;;;483306;246;1278;-44
2022/11/24 09:54:30;;;;;;;;;;;21.30;41.00;;;;;;483777;246;1309;-44
2022/11/24 09:56:32;;;;;;;;;;;21.30;41.00;;;;;;484178;246;1189;-45
2022/11/24 09:58:33;;;;;;;;;;;21.40;41.10;;;;;;483701;246;1230;-44
2022/11/24 10:00:34;;;;;;;;;;;21.30;41.00;;;;;;483819;246;1082;-44
2022/11/24 10:02:36;;;;;;;;;;;21.30;41.00;;;;;;483791;246;1099;-44
2022/11/24 10:04:37;;;;;;;;;;;21.40;41.00;;;;;;483800;246;1196;-44
2022/11/24 10:06:38;;;;;;;;;;;21.40;41.00;;;;;;483921;246;1210;-44
2022/11/24 10:08:40;;;;;;;;;;;21.40;41.00;;;;;;483812;246;1267;-44
2022/11/24 10:10:41;;;;;;;;;;;21.40;41.00;;;;;;483749;246;2141;-44
2022/11/24 10:12:42;;;;;;;;;;;21.40;40.90;;;;;;483837;246;1259;-44
2022/11/24 10:14:44;;;;;;;;;;;21.30;40.90;;;;;;483705;246;1220;-45
2022/11/24 10:16:45;;;;;;;;;;;21.40;41.00;;;;;;483822;246;1646;-45
2022/11/24 10:18:46;;;;;;;;;;;21.40;41.00;;;;;;484042;246;1275;-44
2022/11/24 10:20:48;;;;;;;;;;;21.30;40.90;;;;;;483482;246;1212;-44
2022/11/24 10:22:49;;;;;;;;;;;21.30;41.00;;;;;;483715;246;1258;-44
2022/11/24 10:24:50;;;;;;;;;;;21.40;41.00;;;;;;483754;246;1265;-44
2022/11/24 10:26:52;;;;;;;;;;;21.30;41.00;;;;;;483852;246;1164;-44
2022/11/24 10:28:53;;;;;;;;;;;21.30;41.00;;;;;;483754;246;1309;-44
2022/11/24 10:30:54;;;;;;;;;;;21.40;41.00;;;;;;483945;246;2160;-44
2022/11/24 10:32:56;;;;;;;;;;;21.30;41.00;;;;;;483913;246;1260;-44
2022/11/24 10:34:57;;;;;;;;;;;21.30;41.00;;;;;;483988;246;1190;-44
2022/11/24 10:36:58;;;;;;;;;;;21.40;41.00;;;;;;483956;246;1225;-44
2022/11/24 10:39:00;;;;;;;;;;;21.40;40.90;;;;;;484093;246;1214;-44
2022/11/24 10:41:01;;;;;;;;;;;21.40;40.90;;;;;;483850;246;1163;-44
2022/11/24 10:43:04;;;;;;;;;;;21.30;40.90;;;;;;483958;246;1236;-44
2022/11/24 10:45:04;;;;;;;;;;;21.40;40.90;;;;;;483718;246;1869;-44
2022/11/24 10:47:05;;;;;;;;;;;21.40;40.80;;;;;;483931;246;1231;-44
2022/11/24 10:49:06;;;;;;;;;;;21.40;40.80;;;;;;483962;246;1277;-44
2022/11/24 10:51:08;;;;;;;;;;;21.40;40.80;;;;;;484119;246;2164;-44
2022/11/24 10:53:09;;;;;;;;;;;21.40;40.80;;;;;;483880;237;1202;-44
2022/11/24 10:55:10;;;;;;;;;;;21.40;40.80;;;;;;484062;246;1277;-44
2022/11/24 10:57:12;;;;;;;;;;;21.40;40.70;;;;;;483803;246;1307;-45
2022/11/24 10:59:13;;;;;;;;;;;21.40;40.80;;;;;;483923;246;1342;-44
2022/11/24 11:01:14;;;;;;;;;;;21.50;40.80;;;;;;483862;246;1260;-44
2022/11/24 11:03:16;;;;;;;;;;;21.50;40.80;;;;;;483669;246;1234;-44
2022/11/24 11:05:17;;;;;;;;;;;21.50;40.80;;;;;;483877;246;1453;-45
2022/11/24 11:07:19;;;;;;;;;;;21.50;40.70;;;;;;484103;246;1176;-44
2022/11/24 11:09:20;;;;;;;;;;;21.50;40.70;;;;;;483724;246;1246;-44
2022/11/24 11:11:22;;;;;;;;;;;21.50;40.70;;;;;;483911;246;2203;-44
2022/11/24 11:13:23;;;;;;;;;;;21.50;40.70;;;;;;483897;246;1908;-44
2022/11/24 11:15:24;;;;;;;;;;;21.50;40.70;;;;;;483826;246;1245;-44
2022/11/24 11:17:26;;;;;;;;;;;21.50;40.70;;;;;;483988;246;1209;-45
2022/11/24 11:19:27;;;;;;;;;;;21.50;40.80;;;;;;483973;246;1324;-44
2022/11/24 11:21:28;;;;;;;;;;;21.40;40.80;;;;;;483802;246;1199;-44
2022/11/24 11:23:29;;;;;;;;;;;21.50;40.80;;;;;;483764;246;1190;-44
2022/11/24 11:25:31;;;;;;;;;;;21.50;40.80;;;;;;483800;246;1278;-44
2022/11/24 11:27:32;;;;;;;;;;;21.50;40.80;;;;;;483894;246;1453;-44
2022/11/24 11:29:33;;;;;;;;;;;21.50;40.80;;;;;;483874;246;1595;-44
2022/11/24 11:31:35;;;;;;;;;;;21.40;40.80;;;;;;483708;246;2242;-44
2022/11/24 11:33:36;;;;;;;;;;;21.40;40.90;;;;;;483883;246;1206;-44
2022/11/24 11:35:37;;;;;;;;;;;21.40;40.80;;;;;;483784;246;1389;-45
2022/11/24 11:37:39;;;;;;;;;;;21.40;40.80;;;;;;483688;246;1216;-44
2022/11/24 11:39:40;;;;;;;;;;;21.40;40.80;;;;;;483520;246;1274;-45
2022/11/24 11:41:41;;;;;;;;;;;21.50;40.80;;;;;;483650;246;1229;-44
2022/11/24 11:43:44;;;;;;;;;;;21.40;40.80;;;;;;483685;246;1476;-44
2022/11/24 11:45:44;;;;;;;;;;;21.50;40.80;;;;;;483651;246;1892;-45
2022/11/24 11:47:45;;;;;;;;;;;21.50;40.80;;;;;;483878;246;1242;-44
2022/11/24 11:49:47;;;;;;;;;;;21.50;40.80;;;;;;484093;246;1263;-44
2022/11/24 11:51:48;;;;;;;;;;;21.50;40.90;;;;;;484077;246;2148;-45
2022/11/24 11:53:49;;;;;;;;;;;21.50;40.80;;;;;;483594;246;1690;-44
2022/11/24 11:55:51;;;;;;;;;;;21.50;40.80;;;;;;483806;246;1252;-45
2022/11/24 11:57:52;;;;;;;;;;;21.40;40.80;;;;;;483795;246;1683;-44